createdAt,value
2018-09-03T00:01:46.036Z,98.50
2018-09-03T00:04:14.268Z,98.50
2018-09-03T00:06:42.424Z,98.50
2018-09-03T00:09:11.335Z,98.50
2018-09-03T00:11:39.552Z,98.50
2018-09-03T00:14:07.833Z,98.50
2018-09-03T00:16:36.005Z,98.50
2018-09-03T00:19:04.252Z,98.50
2018-09-03T00:21:32.441Z,98.50
2018-09-03T00:24:00.641Z,98.50
2018-09-03T00:26:28.809Z,98.50
2018-09-03T00:28:57.022Z,98.50
2018-09-03T00:31:30.659Z,98.50
2018-09-03T00:34:04.293Z,98.50
2018-09-03T00:36:37.877Z,98.50
2018-09-03T00:39:12.924Z,98.50
2018-09-03T00:41:46.729Z,98.50
2018-09-03T00:44:20.431Z,98.50
2018-09-03T00:46:54.190Z,98.50
2018-09-03T00:49:22.410Z,98.50
2018-09-03T00:51:50.590Z,98.50
2018-09-03T00:54:18.815Z,98.50
2018-09-03T00:56:46.988Z,98.50
2018-09-03T00:59:15.184Z,98.50
2018-09-03T01:01:43.454Z,98.50
2018-09-03T01:04:11.665Z,98.50
2018-09-03T01:06:39.846Z,98.50
2018-09-03T01:09:08.546Z,98.50
2018-09-03T01:11:36.720Z,98.50
2018-09-03T01:14:04.941Z,98.50
2018-09-03T01:16:33.114Z,98.50
2018-09-03T01:19:01.320Z,98.50
2018-09-03T01:21:29.536Z,98.50
2018-09-03T01:23:57.729Z,98.50
2018-09-03T01:26:25.946Z,98.50
2018-09-03T01:28:54.112Z,98.50
2018-09-03T01:31:22.326Z,98.50
2018-09-03T01:33:52.426Z,98.50
2018-09-03T01:36:20.944Z,98.50
2018-09-03T01:38:49.137Z,98.50
2018-09-03T01:41:18.180Z,98.50
2018-09-03T01:43:46.804Z,98.50
2018-09-03T01:46:15.049Z,98.50
2018-09-03T01:48:43.317Z,98.50
2018-09-03T01:51:11.521Z,98.50
2018-09-03T01:53:39.705Z,98.50
2018-09-03T01:56:08.269Z,98.50
2018-09-03T01:58:36.469Z,98.50
2018-09-03T02:01:04.773Z,98.50
2018-09-03T02:03:33.204Z,98.50
2018-09-03T02:06:01.423Z,98.50
2018-09-03T02:08:29.776Z,98.50
2018-09-03T02:10:58.005Z,98.50
2018-09-03T02:13:26.281Z,98.50
2018-09-03T02:15:54.493Z,98.50
2018-09-03T02:18:22.673Z,98.50
2018-09-03T02:20:50.888Z,98.50
2018-09-03T02:23:19.048Z,98.50
2018-09-03T02:25:47.325Z,98.50
2018-09-03T02:28:15.497Z,98.50
2018-09-03T02:30:43.697Z,98.50
2018-09-03T02:33:11.893Z,98.50
2018-09-03T02:35:40.103Z,98.50
2018-09-03T02:38:08.283Z,98.50
2018-09-03T02:40:36.491Z,98.50
2018-09-03T02:43:04.724Z,98.50
2018-09-03T02:45:32.985Z,98.50
2018-09-03T02:48:01.193Z,98.50
2018-09-03T02:50:29.368Z,98.50
2018-09-03T02:52:57.569Z,98.50
2018-09-03T02:55:25.728Z,98.50
2018-09-03T02:57:53.928Z,98.50
2018-09-03T03:00:25.882Z,98.50
2018-09-03T03:02:55.225Z,98.50
2018-09-03T03:05:23.412Z,98.50
2018-09-03T03:07:51.605Z,98.50
2018-09-03T03:10:19.795Z,98.50
2018-09-03T03:12:47.990Z,98.50
2018-09-03T03:15:16.266Z,98.50
2018-09-03T03:17:44.470Z,98.50
2018-09-03T03:20:12.653Z,98.50
2018-09-03T03:22:40.893Z,98.50
2018-09-03T03:25:09.093Z,98.50
2018-09-03T03:27:37.296Z,98.50
2018-09-03T03:30:06.982Z,98.50
2018-09-03T03:32:35.199Z,98.50
2018-09-03T03:35:03.437Z,98.50
2018-09-03T03:37:31.637Z,98.50
2018-09-03T03:39:59.820Z,98.50
2018-09-03T03:42:28.073Z,98.50
2018-09-03T03:44:56.274Z,98.50
2018-09-03T03:47:24.477Z,98.50
2018-09-03T03:49:52.718Z,98.50
2018-09-03T03:52:20.929Z,98.50
2018-09-03T03:54:49.092Z,98.50
2018-09-03T03:57:17.284Z,98.50
2018-09-03T03:59:45.458Z,98.50
2018-09-03T04:02:13.669Z,98.50
2018-09-03T04:04:41.836Z,98.50
2018-09-03T04:07:10.045Z,98.50
2018-09-03T04:09:38.241Z,98.50
2018-09-03T04:12:06.422Z,98.50
2018-09-03T04:14:34.628Z,98.50
2018-09-03T04:17:03.032Z,98.50
2018-09-03T04:19:31.233Z,98.50
2018-09-03T04:21:59.402Z,98.50
2018-09-03T04:24:27.610Z,98.50
2018-09-03T04:26:55.769Z,98.50
2018-09-03T04:29:23.974Z,98.50
2018-09-03T04:31:52.159Z,98.50
2018-09-03T04:34:20.392Z,98.50
2018-09-03T04:36:48.561Z,98.50
2018-09-03T04:39:16.785Z,98.50
2018-09-03T04:41:45.000Z,98.50
2018-09-03T04:44:13.208Z,98.50
2018-09-03T04:46:41.542Z,98.50
2018-09-03T04:49:09.736Z,98.50
2018-09-03T04:51:37.918Z,98.50
2018-09-03T04:54:06.138Z,98.50
2018-09-03T04:56:34.308Z,98.50
2018-09-03T04:59:02.518Z,98.50
2018-09-03T05:01:30.681Z,98.50
2018-09-03T05:03:58.885Z,98.50
2018-09-03T05:06:27.105Z,98.50
2018-09-03T05:08:55.369Z,98.50
2018-09-03T05:11:23.598Z,98.50
2018-09-03T05:13:51.821Z,98.50
2018-09-03T05:16:19.976Z,98.50
2018-09-03T05:18:48.180Z,98.50
2018-09-03T05:21:16.371Z,98.50
2018-09-03T05:23:44.776Z,98.50
2018-09-03T05:26:13.065Z,98.50
2018-09-03T05:28:41.284Z,98.50
2018-09-03T05:31:09.503Z,98.50
2018-09-03T05:33:37.798Z,98.50
2018-09-03T05:36:06.141Z,98.50
2018-09-03T05:38:34.327Z,98.50
2018-09-03T05:41:02.563Z,98.50
2018-09-03T05:43:30.802Z,98.50
2018-09-03T05:45:59.071Z,98.50
2018-09-03T05:48:27.326Z,98.50
2018-09-03T05:50:55.557Z,98.50
2018-09-03T05:53:23.733Z,98.50
2018-09-03T05:55:52.105Z,98.50
2018-09-03T05:58:20.278Z,98.50
2018-09-03T06:00:48.577Z,98.50
2018-09-03T06:03:16.744Z,98.50
2018-09-03T06:05:44.969Z,98.50
2018-09-03T06:08:13.276Z,98.50
2018-09-03T06:10:41.504Z,98.50
2018-09-03T06:13:09.733Z,98.50
2018-09-03T06:15:38.000Z,98.50
2018-09-03T06:18:06.479Z,98.50
2018-09-03T06:20:34.739Z,98.50
2018-09-03T06:23:02.926Z,98.50
2018-09-03T06:25:31.158Z,98.50
2018-09-03T06:27:59.337Z,98.50
2018-09-03T06:30:27.561Z,98.50
2018-09-03T06:32:55.836Z,98.50
2018-09-03T06:35:24.048Z,98.50
2018-09-03T06:37:52.240Z,98.50
2018-09-03T06:40:20.464Z,98.50
2018-09-03T06:42:48.644Z,98.50
2018-09-03T06:45:17.001Z,98.50
2018-09-03T06:47:45.240Z,98.50
2018-09-03T06:50:13.597Z,98.50
2018-09-03T06:52:42.017Z,98.50
2018-09-03T06:55:10.185Z,98.50
2018-09-03T06:57:38.392Z,98.50
2018-09-03T07:00:07.372Z,98.50
2018-09-03T07:02:35.813Z,98.30
2018-09-03T07:05:04.106Z,97.70
2018-09-03T07:07:32.380Z,98.20
2018-09-03T07:10:00.560Z,98.40
2018-09-03T07:12:28.800Z,96.10
2018-09-03T07:14:56.977Z,96.60
2018-09-03T07:17:25.189Z,96.40
2018-09-03T07:19:53.386Z,96.00
2018-09-03T07:22:21.609Z,96.10
2018-09-03T07:24:49.786Z,95.20
2018-09-03T07:27:18.018Z,94.90
2018-09-03T07:29:46.305Z,94.70
2018-09-03T07:32:14.519Z,94.30
2018-09-03T07:34:42.708Z,94.00
2018-09-03T07:37:11.225Z,92.10
2018-09-03T07:39:39.468Z,92.90
2018-09-03T07:42:07.697Z,95.00
2018-09-03T07:44:35.918Z,96.40
2018-09-03T07:47:04.189Z,95.40
2018-09-03T07:49:32.357Z,94.60
2018-09-03T07:52:00.568Z,93.60
2018-09-03T07:54:28.732Z,93.70
2018-09-03T07:56:56.946Z,93.60
2018-09-03T07:59:25.122Z,92.80
2018-09-03T08:01:53.332Z,91.90
2018-09-03T08:04:21.504Z,90.80
2018-09-03T08:06:49.730Z,90.20
2018-09-03T08:09:17.896Z,89.60
2018-09-03T08:11:46.105Z,88.90
2018-09-03T08:14:14.321Z,88.80
2018-09-03T08:16:42.496Z,89.70
2018-09-03T08:19:10.758Z,90.90
2018-09-03T08:21:38.944Z,92.20
2018-09-03T08:24:07.353Z,92.50
2018-09-03T08:26:35.529Z,92.20
2018-09-03T08:29:03.796Z,91.60
2018-09-03T08:31:31.985Z,90.80
2018-09-03T08:34:00.199Z,90.20
2018-09-03T08:36:28.365Z,91.30
2018-09-03T08:38:56.634Z,90.90
2018-09-03T08:41:24.798Z,90.40
2018-09-03T08:43:53.016Z,89.10
2018-09-03T08:46:21.249Z,87.90
2018-09-03T08:48:49.486Z,86.90
2018-09-03T08:51:17.662Z,86.20
2018-09-03T08:53:45.937Z,85.70
2018-09-03T08:56:14.144Z,84.50
2018-09-03T08:58:42.453Z,82.60
2018-09-03T09:01:10.620Z,84.20
2018-09-03T09:03:41.916Z,83.80
2018-09-03T09:06:10.469Z,82.50
2018-09-03T09:08:38.697Z,82.20
2018-09-03T09:11:07.756Z,82.00
2018-09-03T09:13:35.956Z,82.70
2018-09-03T09:16:04.197Z,83.90
2018-09-03T09:18:32.473Z,82.70
2018-09-03T09:21:00.624Z,83.00
2018-09-03T09:23:28.817Z,84.70
2018-09-03T09:25:56.988Z,83.60
2018-09-03T09:28:25.196Z,84.60
2018-09-03T09:30:53.380Z,84.90
2018-09-03T09:33:21.592Z,85.80
2018-09-03T09:35:49.850Z,84.70
2018-09-03T09:38:18.070Z,84.50
2018-09-03T09:40:46.308Z,85.30
2018-09-03T09:43:14.502Z,87.30
2018-09-03T09:45:42.740Z,88.00
2018-09-03T09:48:10.964Z,87.20
2018-09-03T09:50:39.206Z,88.20
2018-09-03T09:53:07.408Z,88.00
2018-09-03T09:55:35.792Z,89.40
2018-09-03T09:58:04.077Z,88.70
2018-09-03T10:00:37.982Z,89.50
2018-09-03T10:03:06.422Z,90.10
2018-09-03T10:05:36.240Z,90.40
2018-09-03T10:08:04.454Z,90.00
2018-09-03T10:10:33.209Z,89.50
2018-09-03T10:13:01.545Z,89.60
2018-09-03T10:15:29.782Z,90.20
2018-09-03T10:17:57.961Z,92.10
2018-09-03T10:20:26.370Z,92.10
2018-09-03T10:22:54.585Z,92.40
2018-09-03T10:25:23.001Z,92.60
2018-09-03T10:27:51.186Z,92.20
2018-09-03T10:30:19.397Z,92.20
2018-09-03T10:32:47.674Z,92.20
2018-09-03T10:35:15.893Z,91.90
2018-09-03T10:37:44.073Z,91.60
2018-09-03T10:40:12.311Z,91.80
2018-09-03T10:42:40.493Z,90.70
2018-09-03T10:45:08.767Z,90.60
2018-09-03T10:47:37.061Z,89.70
2018-09-03T10:50:05.347Z,89.80
2018-09-03T10:52:33.636Z,90.10
2018-09-03T10:55:01.849Z,89.20
2018-09-03T10:57:30.041Z,89.80
2018-09-03T10:59:58.258Z,89.20
2018-09-03T11:02:26.484Z,89.00
2018-09-03T11:04:54.674Z,89.40
2018-09-03T11:07:22.907Z,88.10
2018-09-03T11:09:51.089Z,88.50
2018-09-03T11:12:19.412Z,88.70
2018-09-03T11:14:47.589Z,89.10
2018-09-03T11:17:15.807Z,89.70
2018-09-03T11:19:50.879Z,89.80
2018-09-03T11:22:19.118Z,88.60
2018-09-03T11:24:47.331Z,90.30
2018-09-03T11:27:15.642Z,90.10
2018-09-03T11:29:43.816Z,88.10
2018-09-03T11:32:12.075Z,88.40
2018-09-03T11:34:40.264Z,89.10
2018-09-03T11:37:08.517Z,88.20
2018-09-03T11:39:36.673Z,87.80
2018-09-03T11:42:04.917Z,87.90
2018-09-03T11:44:33.086Z,86.80
2018-09-03T11:47:01.397Z,84.40
2018-09-03T11:49:29.588Z,84.80
2018-09-03T11:51:57.801Z,85.50
2018-09-03T11:54:26.003Z,86.00
2018-09-03T11:56:54.225Z,85.60
2018-09-03T11:59:22.483Z,85.00
2018-09-03T12:01:50.933Z,85.10
2018-09-03T12:04:19.126Z,85.90
2018-09-03T12:06:47.420Z,86.10
2018-09-03T12:09:15.558Z,84.60
2018-09-03T12:11:43.762Z,85.20
2018-09-03T12:14:19.773Z,86.20
2018-09-03T12:16:48.149Z,85.60
2018-09-03T12:19:16.333Z,86.20
2018-09-03T12:21:44.536Z,85.10
2018-09-03T12:24:12.750Z,85.30
2018-09-03T12:26:40.982Z,85.90
2018-09-03T12:29:09.146Z,85.80
2018-09-03T12:31:37.342Z,85.00
2018-09-03T12:34:05.574Z,83.70
2018-09-03T12:36:33.732Z,84.20
2018-09-03T12:39:01.968Z,84.90
2018-09-03T12:41:30.141Z,85.00
2018-09-03T12:43:58.476Z,85.40
2018-09-03T12:46:26.726Z,85.90
2018-09-03T12:48:54.964Z,86.20
2018-09-03T12:51:23.220Z,85.10
2018-09-03T12:53:51.402Z,85.30
2018-09-03T12:56:19.700Z,84.10
2018-09-03T12:58:47.921Z,85.30
2018-09-03T13:01:16.122Z,84.30
2018-09-03T13:03:44.350Z,84.60
2018-09-03T13:06:12.593Z,83.90
2018-09-03T13:08:41.253Z,82.70
2018-09-03T13:11:09.450Z,82.80
2018-09-03T13:13:37.665Z,82.80
2018-09-03T13:16:05.921Z,83.10
2018-09-03T13:18:34.136Z,81.70
2018-09-03T13:21:02.304Z,80.80
2018-09-03T13:23:30.529Z,79.00
2018-09-03T13:25:58.705Z,78.80
2018-09-03T13:28:26.898Z,77.90
2018-09-03T13:30:55.136Z,76.50
2018-09-03T13:33:23.319Z,77.00
2018-09-03T13:35:51.476Z,76.50
2018-09-03T13:38:19.683Z,76.50
2018-09-03T13:40:47.957Z,77.40
2018-09-03T13:43:16.192Z,77.60
2018-09-03T13:45:44.407Z,78.90
2018-09-03T13:48:12.751Z,79.30
2018-09-03T13:50:41.059Z,79.80
2018-09-03T13:53:09.265Z,81.10
2018-09-03T13:55:37.476Z,81.70
2018-09-03T13:58:05.931Z,81.20
2018-09-03T14:00:34.146Z,81.60
2018-09-03T14:03:02.297Z,81.30
2018-09-03T14:05:30.488Z,81.60
2018-09-03T14:07:58.642Z,81.00
2018-09-03T14:10:26.879Z,81.10
2018-09-03T14:12:55.057Z,80.80
2018-09-03T14:15:23.340Z,80.70
2018-09-03T14:17:51.517Z,79.90
2018-09-03T14:20:19.744Z,81.00
2018-09-03T14:22:47.924Z,81.10
2018-09-03T14:25:16.145Z,81.30
2018-09-03T14:27:44.303Z,79.30
2018-09-03T14:30:12.540Z,79.30
2018-09-03T14:32:40.709Z,79.60
2018-09-03T14:35:09.008Z,78.60
2018-09-03T14:37:37.198Z,78.10
2018-09-03T14:40:05.541Z,80.30
2018-09-03T14:42:33.755Z,79.30
2018-09-03T14:45:01.957Z,80.00
2018-09-03T14:47:30.146Z,80.20
2018-09-03T14:49:58.444Z,79.80
2018-09-03T14:52:26.726Z,79.20
2018-09-03T14:54:54.966Z,79.90
2018-09-03T14:57:23.140Z,78.40
2018-09-03T14:59:51.473Z,80.00
2018-09-03T15:02:19.679Z,81.20
2018-09-03T15:04:47.993Z,80.70
2018-09-03T15:07:16.181Z,80.60
2018-09-03T15:09:44.369Z,80.20
2018-09-03T15:12:12.610Z,80.80
2018-09-03T15:14:40.776Z,79.60
2018-09-03T15:17:08.998Z,78.80
2018-09-03T15:19:37.260Z,77.40
2018-09-03T15:22:05.552Z,78.20
2018-09-03T15:24:33.743Z,78.60
2018-09-03T15:27:01.955Z,78.80
2018-09-03T15:29:30.125Z,79.80
2018-09-03T15:31:58.369Z,77.20
2018-09-03T15:34:26.556Z,78.00
2018-09-03T15:36:54.906Z,79.10
2018-09-03T15:39:23.089Z,79.50
2018-09-03T15:41:51.338Z,80.20
2018-09-03T15:44:19.535Z,80.10
2018-09-03T15:46:47.769Z,81.70
2018-09-03T15:49:16.722Z,80.60
2018-09-03T15:51:44.967Z,80.40
2018-09-03T15:54:13.361Z,80.00
2018-09-03T15:56:41.472Z,80.60
2018-09-03T15:59:09.646Z,80.00
2018-09-03T16:01:37.889Z,81.20
2018-09-03T16:04:06.152Z,80.70
2018-09-03T16:06:34.378Z,81.40
2018-09-03T16:09:02.780Z,81.40
2018-09-03T16:11:31.005Z,81.30
2018-09-03T16:13:59.168Z,81.10
2018-09-03T16:16:27.398Z,81.80
2018-09-03T16:18:55.596Z,80.90
2018-09-03T16:21:23.814Z,81.00
2018-09-03T16:23:51.992Z,81.40
2018-09-03T16:26:20.226Z,80.90
2018-09-03T16:28:48.409Z,82.00
2018-09-03T16:31:16.628Z,81.60
2018-09-03T16:33:44.942Z,82.10
2018-09-03T16:36:13.122Z,82.60
2018-09-03T16:38:41.385Z,83.00
2018-09-03T16:41:09.576Z,84.20
2018-09-03T16:43:37.802Z,83.90
2018-09-03T16:46:05.988Z,83.30
2018-09-03T16:48:34.205Z,83.00
2018-09-03T16:51:02.461Z,84.00
2018-09-03T16:53:30.680Z,84.00
2018-09-03T16:55:58.930Z,84.40
2018-09-03T16:58:27.245Z,84.20
2018-09-03T17:00:55.866Z,84.40
2018-09-03T17:03:24.046Z,85.30
2018-09-03T17:05:52.302Z,85.60
2018-09-03T17:08:20.632Z,86.00
2018-09-03T17:10:48.805Z,86.70
2018-09-03T17:13:17.020Z,86.50
2018-09-03T17:15:45.220Z,87.40
2018-09-03T17:18:13.475Z,87.40
2018-09-03T17:20:41.661Z,87.70
2018-09-03T17:23:09.919Z,88.50
2018-09-03T17:25:38.129Z,88.10
2018-09-03T17:28:06.326Z,87.70
2018-09-03T17:30:34.521Z,87.60
2018-09-03T17:33:03.157Z,88.20
2018-09-03T17:35:31.769Z,88.30
2018-09-03T17:38:00.401Z,89.30
2018-09-03T17:40:29.009Z,89.40
2018-09-03T17:42:57.362Z,90.10
2018-09-03T17:45:25.552Z,90.00
2018-09-03T17:47:54.521Z,89.40
2018-09-03T17:50:23.115Z,89.40
2018-09-03T17:52:51.741Z,89.00
2018-09-03T17:55:20.382Z,89.40
2018-09-03T17:57:48.919Z,90.20
2018-09-03T18:00:17.143Z,90.30
2018-09-03T18:02:45.360Z,90.60
2018-09-03T18:05:13.576Z,90.90
2018-09-03T18:07:41.749Z,92.90
2018-09-03T18:10:10.087Z,91.60
2018-09-03T18:12:38.893Z,92.30
2018-09-03T18:15:08.601Z,92.90
2018-09-03T18:17:36.809Z,92.60
2018-09-03T18:20:05.199Z,92.80
2018-09-03T18:22:33.866Z,92.30
2018-09-03T18:25:02.619Z,92.40
2018-09-03T18:27:32.237Z,92.40
2018-09-03T18:30:01.108Z,92.40
2018-09-03T18:32:29.986Z,92.20
2018-09-03T18:34:58.715Z,92.10
2018-09-03T18:37:27.376Z,92.40
2018-09-03T18:39:56.809Z,92.50
2018-09-03T18:42:25.485Z,92.40
2018-09-03T18:44:54.310Z,92.00
2018-09-03T18:47:27.192Z,91.60
2018-09-03T18:49:55.509Z,91.30
2018-09-03T18:52:23.848Z,91.60
2018-09-03T18:54:52.061Z,91.70
2018-09-03T18:57:20.230Z,91.70
2018-09-03T18:59:48.571Z,91.90
2018-09-03T19:02:16.860Z,92.40
2018-09-03T19:04:45.766Z,92.40
2018-09-03T19:07:14.088Z,92.20
2018-09-03T19:09:42.356Z,92.70
2018-09-03T19:12:10.637Z,92.50
2018-09-03T19:14:40.169Z,92.60
2018-09-03T19:17:08.377Z,92.30
2018-09-03T19:19:36.680Z,92.70
2018-09-03T19:22:04.852Z,92.60
2018-09-03T19:24:33.076Z,92.90
2018-09-03T19:27:01.402Z,93.00
2018-09-03T19:29:29.586Z,93.20
2018-09-03T19:31:57.786Z,93.40
2018-09-03T19:34:25.992Z,93.50
2018-09-03T19:36:54.358Z,93.60
2018-09-03T19:39:22.534Z,94.00
2018-09-03T19:41:50.794Z,94.30
2018-09-03T19:44:18.985Z,94.30
2018-09-03T19:46:47.246Z,94.50
2018-09-03T19:49:15.413Z,94.80
2018-09-03T19:51:43.608Z,95.20
2018-09-03T19:54:11.806Z,95.50
2018-09-03T19:56:40.364Z,95.80
2018-09-03T19:59:08.528Z,96.00
2018-09-03T20:01:37.085Z,96.20
2018-09-03T20:04:05.580Z,96.30
2018-09-03T20:06:33.885Z,96.20
2018-09-03T20:09:02.329Z,96.40
2018-09-03T20:11:30.568Z,96.50
2018-09-03T20:13:58.756Z,96.50
2018-09-03T20:16:27.105Z,96.60
2018-09-03T20:18:55.296Z,96.80
2018-09-03T20:21:23.675Z,96.90
2018-09-03T20:23:51.864Z,97.00
2018-09-03T20:26:20.101Z,97.20
2018-09-03T20:28:48.294Z,97.20
2018-09-03T20:31:16.573Z,97.00
2018-09-03T20:33:44.743Z,97.00
2018-09-03T20:36:13.017Z,97.10
2018-09-03T20:38:41.257Z,97.20
2018-09-03T20:41:09.925Z,97.20
2018-09-03T20:43:38.119Z,97.40
2018-09-03T20:46:06.325Z,97.70
2018-09-03T20:48:34.659Z,98.00
2018-09-03T20:51:03.486Z,97.90
2018-09-03T20:53:31.726Z,98.20
2018-09-03T20:56:00.004Z,98.00
2018-09-03T20:58:29.181Z,98.30
2018-09-03T21:00:57.365Z,98.20
2018-09-03T21:03:25.585Z,98.00
2018-09-03T21:05:53.777Z,98.30
2018-09-03T21:08:22.075Z,98.50
2018-09-03T21:10:50.268Z,98.50
2018-09-03T21:13:18.488Z,98.50
2018-09-03T21:15:46.674Z,98.50
2018-09-03T21:18:14.926Z,98.50
2018-09-03T21:20:43.108Z,98.50
2018-09-03T21:23:11.323Z,98.50
2018-09-03T21:25:39.570Z,98.50
2018-09-03T21:28:07.809Z,98.50
2018-09-03T21:30:35.988Z,98.50
2018-09-03T21:33:04.225Z,98.50
2018-09-03T21:35:32.413Z,98.50
2018-09-03T21:38:00.730Z,98.50
2018-09-03T21:40:28.912Z,98.50
2018-09-03T21:42:57.128Z,98.50
2018-09-03T21:45:25.330Z,98.50
2018-09-03T21:47:53.550Z,98.50
2018-09-03T21:50:21.793Z,98.50
2018-09-03T21:52:50.002Z,98.50
2018-09-03T21:55:18.180Z,98.50
2018-09-03T21:57:46.368Z,98.50
2018-09-03T22:00:14.676Z,98.50
2018-09-03T22:02:42.897Z,98.50
2018-09-03T22:05:11.129Z,98.50
2018-09-03T22:07:39.338Z,98.50
2018-09-03T22:10:07.575Z,98.50
2018-09-03T22:12:35.776Z,98.50
2018-09-03T22:15:04.053Z,98.50
2018-09-03T22:17:32.223Z,98.50
2018-09-03T22:20:00.444Z,98.50
2018-09-03T22:22:28.624Z,98.50
2018-09-03T22:24:56.836Z,98.50
2018-09-03T22:27:25.076Z,98.50
2018-09-03T22:29:53.290Z,98.50
2018-09-03T22:32:21.477Z,98.50
2018-09-03T22:34:49.681Z,98.50
2018-09-03T22:37:17.859Z,98.50
2018-09-03T22:39:46.073Z,98.50
2018-09-03T22:42:14.261Z,98.50
2018-09-03T22:44:42.514Z,98.50
2018-09-03T22:47:10.690Z,98.50
2018-09-03T22:49:38.905Z,98.50
2018-09-03T22:52:07.097Z,98.50
2018-09-03T22:54:35.317Z,98.50
2018-09-03T22:57:03.557Z,98.50
2018-09-03T22:59:31.768Z,98.50
2018-09-03T23:01:59.960Z,98.50
2018-09-03T23:04:28.176Z,98.50
2018-09-03T23:06:56.338Z,98.50
2018-09-03T23:09:24.586Z,98.50
2018-09-03T23:11:52.772Z,98.50
2018-09-03T23:14:21.022Z,98.50
2018-09-03T23:16:49.213Z,98.50
2018-09-03T23:19:17.414Z,98.50
2018-09-03T23:21:45.593Z,98.50
2018-09-03T23:24:14.233Z,98.50
2018-09-03T23:26:42.415Z,98.50
2018-09-03T23:29:10.628Z,98.50
2018-09-03T23:31:38.801Z,98.50
2018-09-03T23:34:06.977Z,98.50
2018-09-03T23:36:35.205Z,98.50
2018-09-03T23:39:04.442Z,98.50
2018-09-03T23:41:32.653Z,98.50
2018-09-03T23:44:00.833Z,98.50
2018-09-03T23:46:29.025Z,98.50
2018-09-03T23:48:57.197Z,98.50
2018-09-03T23:51:25.414Z,98.50
2018-09-03T23:53:53.645Z,98.50
2018-09-03T23:56:21.849Z,98.50
2018-09-03T23:58:50.030Z,98.50
